Time;durP1;ratioP1;P1;durP2;ratioP2;P2;SDS_P1;SDS_P2;PMS_P1;PMS_P2;Temp;Humidity;BMP_temperature;BMP_pressure;BME280_temperature;BME280_humidity;BME280_pressure;Samples;Min_cycle;Max_cycle;Signal;HPM_P1;HPM_P2
2022/11/30 00:00:17;;;;;;;149.63;22.42;;;;;;;;;;5072408;28;20118;-72
2022/11/30 00:02:43;;;;;;;130.57;22.85;;;;;;;;;;5070170;28;20041;-72
2022/11/30 00:05:09;;;;;;;212.35;27.88;;;;;;;;;;5042752;28;20566;-72
2022/11/30 00:07:35;;;;;;;174.98;29.17;;;;;;;;;;5071787;28;20049;-72
2022/11/30 00:10:01;;;;;;;242.43;34.08;;;;;;;;;;5075002;28;20120;-72
2022/11/30 00:12:28;;;;;;;200.75;32.40;;;;;;;;;;5057953;28;20037;-72
2022/11/30 00:14:54;;;;;;;247.80;35.08;;;;;;;;;;5074953;28;20049;-72
2022/11/30 00:17:20;;;;;;;243.73;32.80;;;;;;;;;;5076153;28;20528;-71
2022/11/30 00:19:46;;;;;;;213.45;31.15;;;;;;;;;;5073916;28;20045;-72
2022/11/30 00:22:12;;;;;;;193.10;30.70;;;;;;;;;;5074462;28;20044;-72
2022/11/30 00:24:38;;;;;;;113.38;23.60;;;;;;;;;;5074081;28;20049;-72
2022/11/30 00:27:04;;;;;;;157.25;28.30;;;;;;;;;;5075884;28;20496;-72
2022/11/30 00:29:30;;;;;;;107.00;20.98;;;;;;;;;;5075299;28;20029;-72
2022/11/30 00:31:56;;;;;;;133.48;24.02;;;;;;;;;;5074252;28;20036;-72
2022/11/30 00:34:22;;;;;;;133.48;25.05;;;;;;;;;;5071856;28;20112;-72
2022/11/30 00:36:48;;;;;;;130.15;24.25;;;;;;;;;;5075405;28;20044;-72
2022/11/30 00:39:14;;;;;;;118.40;23.42;;;;;;;;;;5074123;28;20044;-72
2022/11/30 00:41:40;;;;;;;111.05;21.50;;;;;;;;;;5073680;28;20044;-72
2022/11/30 00:44:06;;;;;;;67.47;16.63;;;;;;;;;;5075119;28;20068;-72
2022/11/30 00:46:32;;;;;;;145.50;24.25;;;;;;;;;;5073276;28;20052;-72
2022/11/30 00:48:58;;;;;;;125.20;22.20;;;;;;;;;;5073867;28;20440;-72
2022/11/30 00:51:24;;;;;;;113.05;21.60;;;;;;;;;;5074119;28;20444;-72
2022/11/30 00:53:51;;;;;;;147.88;22.02;;;;;;;;;;5073800;28;20040;-72
2022/11/30 00:56:17;;;;;;;91.05;18.95;;;;;;;;;;5075205;28;20083;-72
2022/11/30 00:58:43;;;;;;;120.90;19.45;;;;;;;;;;5057100;28;20127;-72
2022/11/30 01:01:09;;;;;;;66.28;13.45;;;;;;;;;;5057052;28;20069;-72
2022/11/30 01:03:35;;;;;;;105.05;18.05;;;;;;;;;;5074877;28;20040;-72
2022/11/30 01:06:02;;;;;;;150.38;19.92;;;;;;;;;;5073375;28;20040;-72
2022/11/30 01:08:29;;;;;;;75.63;15.95;;;;;;;;;;5073561;28;20659;-72
2022/11/30 01:10:56;;;;;;;83.68;17.75;;;;;;;;;;5074873;28;20436;-72
2022/11/30 01:13:23;;;;;;;84.75;18.55;;;;;;;;;;5073800;28;20047;-72
2022/11/30 01:15:49;;;;;;;48.80;15.27;;;;;;;;;;5072980;28;20041;-72
2022/11/30 01:18:15;;;;;;;37.97;15.40;;;;;;;;;;5073300;28;20041;-72
2022/11/30 01:20:41;;;;;;;45.60;18.40;;;;;;;;;;5072599;28;20048;-72
2022/11/30 01:23:08;;;;;;;45.90;19.67;;;;;;;;;;5073279;28;20040;-72
2022/11/30 01:25:34;;;;;;;33.10;16.35;;;;;;;;;;5056374;28;20447;-72
2022/11/30 01:28:00;;;;;;;44.95;19.05;;;;;;;;;;5074687;28;20066;-72
2022/11/30 01:30:26;;;;;;;35.92;17.98;;;;;;;;;;5073417;28;20503;-72
2022/11/30 01:32:52;;;;;;;42.80;18.25;;;;;;;;;;5072890;28;20045;-72
2022/11/30 01:35:18;;;;;;;42.80;18.40;;;;;;;;;;5069146;28;20040;-72
2022/11/30 01:37:44;;;;;;;44.20;18.85;;;;;;;;;;5072933;28;20109;-72
2022/11/30 01:40:11;;;;;;;44.80;18.90;;;;;;;;;;5072840;28;20044;-72
2022/11/30 01:42:37;;;;;;;35.70;17.40;;;;;;;;;;5072923;28;20397;-72
2022/11/30 01:45:04;;;;;;;46.30;19.10;;;;;;;;;;5073031;28;20047;-72
2022/11/30 01:47:39;;;;;;;40.78;17.98;;;;;;;;;;5072600;28;20377;-72
2022/11/30 01:50:20;;;;;;;31.38;13.50;;;;;;;;;;5054049;28;20040;-72
2022/11/30 01:52:58;;;;;;;41.53;18.25;;;;;;;;;;5053169;28;20443;-72
2022/11/30 01:55:33;;;;;;;39.40;17.77;;;;;;;;;;5056450;28;20040;-72
2022/11/30 01:58:03;;;;;;;44.50;19.15;;;;;;;;;;5060078;28;20045;-72
2022/11/30 02:00:29;;;;;;;45.75;19.95;;;;;;;;;;5064791;28;20397;-72
2022/11/30 02:03:09;;;;;;;41.72;18.98;;;;;;;;;;5073527;28;20162;-72
2022/11/30 02:05:36;;;;;;;39.80;18.10;;;;;;;;;;5106041;28;20045;-72
2022/11/30 02:08:02;;;;;;;42.92;18.48;;;;;;;;;;5072173;28;20062;-72
2022/11/30 02:10:29;;;;;;;36.45;18.02;;;;;;;;;;5072571;28;20048;-72
2022/11/30 02:12:55;;;;;;;38.72;18.23;;;;;;;;;;5072233;28;20604;-72
2022/11/30 02:15:24;;;;;;;46.30;19.48;;;;;;;;;;5072352;28;20036;-72
2022/11/30 02:17:53;;;;;;;37.33;17.13;;;;;;;;;;5071698;28;20092;-72
2022/11/30 02:20:34;;;;;;;49.90;18.70;;;;;;;;;;5072443;28;20040;-72
2022/11/30 02:23:19;;;;;;;40.45;17.60;;;;;;;;;;5070564;28;20076;-72
2022/11/30 02:25:56;;;;;;;34.03;16.73;;;;;;;;;;5044795;28;20036;-72
2022/11/30 02:28:32;;;;;;;60.35;19.40;;;;;;;;;;5071993;28;20171;-72
2022/11/30 02:31:00;;;;;;;35.72;13.93;;;;;;;;;;5071111;28;20493;-72
2022/11/30 02:33:28;;;;;;;42.45;17.95;;;;;;;;;;5070011;28;20513;-72
2022/11/30 02:35:55;;;;;;;32.75;15.95;;;;;;;;;;5071632;28;20045;-72
2022/11/30 02:38:21;;;;;;;40.50;16.83;;;;;;;;;;5073266;28;20041;-72
2022/11/30 02:40:48;;;;;;;39.22;16.30;;;;;;;;;;5054806;28;20044;-72
2022/11/30 02:43:14;;;;;;;42.75;16.85;;;;;;;;;;5071983;28;20400;-72
2022/11/30 02:45:59;;;;;;;48.13;16.80;;;;;;;;;;5105178;28;20118;-72
2022/11/30 02:48:30;;;;;;;54.55;18.70;;;;;;;;;;5071638;28;20127;-72
2022/11/30 02:50:58;;;;;;;45.33;17.48;;;;;;;;;;5071642;28;20492;-72
2022/11/30 02:53:25;;;;;;;35.03;15.77;;;;;;;;;;5071787;28;20124;-72
2022/11/30 02:55:52;;;;;;;48.63;15.95;;;;;;;;;;5071225;28;20052;-72
2022/11/30 02:58:18;;;;;;;48.17;16.77;;;;;;;;;;5072971;28;20036;-72
2022/11/30 03:00:44;;;;;;;108.15;16.80;;;;;;;;;;5062721;28;20045;-72
2022/11/30 03:03:10;;;;;;;100.10;15.18;;;;;;;;;;5051213;28;20037;-72
2022/11/30 03:05:36;;;;;;;31.38;13.68;;;;;;;;;;5052078;28;20043;-72
2022/11/30 03:08:02;;;;;;;29.13;12.38;;;;;;;;;;5050670;28;20040;-72
2022/11/30 03:10:29;;;;;;;53.83;17.00;;;;;;;;;;5051340;28;20041;-72
2022/11/30 03:12:58;;;;;;;80.15;16.77;;;;;;;;;;5050672;28;20072;-72
2022/11/30 03:15:45;;;;;;;101.40;18.33;;;;;;;;;;5034845;28;20033;-72
2022/11/30 03:18:11;;;;;;;;;;;;;;;;;;5051663;28;20131;-72
2022/11/30 03:20:41;;;;;;;38.42;15.57;;;;;;;;;;5051480;28;20373;-72
2022/11/30 03:23:07;;;;;;;42.30;16.13;;;;;;;;;;5050986;28;20482;-72
2022/11/30 03:25:33;;;;;;;43.15;16.23;;;;;;;;;;5052640;28;20435;-72
2022/11/30 03:28:00;;;;;;;33.03;15.15;;;;;;;;;;5050451;28;20429;-72
2022/11/30 03:30:26;;;;;;;48.00;15.23;;;;;;;;;;5051199;28;20045;-72
2022/11/30 03:32:52;;;;;;;33.83;14.88;;;;;;;;;;5051773;28;20122;-72
2022/11/30 03:35:19;;;;;;;30.35;13.73;;;;;;;;;;5050981;28;20080;-72
2022/11/30 03:37:48;;;;;;;26.85;12.90;;;;;;;;;;5050752;28;20043;-72
2022/11/30 03:40:14;;;;;;;37.90;14.77;;;;;;;;;;5034224;28;20040;-72
2022/11/30 03:42:40;;;;;;;43.25;14.82;;;;;;;;;;5050789;28;20076;-72
2022/11/30 03:45:06;;;;;;;33.45;13.88;;;;;;;;;;5050689;28;20148;-72
2022/11/30 03:47:32;;;;;;;42.08;14.15;;;;;;;;;;5050400;28;20053;-72
2022/11/30 03:49:58;;;;;;;41.97;11.18;;;;;;;;;;5033878;28;20076;-72
2022/11/30 03:52:24;;;;;;;165.93;18.55;;;;;;;;;;5050803;28;20044;-72
2022/11/30 03:54:50;;;;;;;54.50;11.50;;;;;;;;;;5050335;28;20110;-72
2022/11/30 03:57:17;;;;;;;171.80;17.90;;;;;;;;;;5050722;28;20468;-72
2022/11/30 03:59:43;;;;;;;269.45;22.17;;;;;;;;;;5058814;28;20040;-72
2022/11/30 04:02:09;;;;;;;212.38;18.70;;;;;;;;;;5070589;28;20048;-72
2022/11/30 04:04:35;;;;;;;207.82;18.98;;;;;;;;;;5071936;28;20045;-72
2022/11/30 04:07:01;;;;;;;209.10;17.95;;;;;;;;;;5070405;28;20130;-72
2022/11/30 04:09:27;;;;;;;212.18;18.05;;;;;;;;;;5070770;28;20052;-72
2022/11/30 04:11:53;;;;;;;122.40;14.00;;;;;;;;;;5070618;28;20037;-72
2022/11/30 04:14:19;;;;;;;121.72;13.75;;;;;;;;;;5070430;28;20124;-72
2022/11/30 04:16:45;;;;;;;167.20;15.40;;;;;;;;;;5070661;28;20037;-72
2022/11/30 04:19:11;;;;;;;190.02;16.15;;;;;;;;;;5070049;28;20071;-72
2022/11/30 04:21:37;;;;;;;210.95;17.80;;;;;;;;;;5070663;28;20108;-72
2022/11/30 04:24:03;;;;;;;105.53;13.82;;;;;;;;;;5070015;28;20149;-72
2022/11/30 04:26:29;;;;;;;88.13;13.25;;;;;;;;;;5070450;28;20041;-72
2022/11/30 04:28:55;;;;;;;134.90;14.52;;;;;;;;;;5071364;28;20041;-73
2022/11/30 04:31:21;;;;;;;184.20;16.73;;;;;;;;;;5054121;28;20049;-72
2022/11/30 04:33:47;;;;;;;94.75;13.77;;;;;;;;;;5062775;28;20037;-72
2022/11/30 04:36:18;;;;;;;79.85;12.73;;;;;;;;;;5064412;28;20125;-72
2022/11/30 04:38:44;;;;;;;60.30;11.60;;;;;;;;;;5070093;28;20032;-72
2022/11/30 04:41:10;;;;;;;129.10;14.40;;;;;;;;;;5070285;28;20055;-72
2022/11/30 04:43:37;;;;;;;79.65;12.55;;;;;;;;;;5070205;28;20056;-72
2022/11/30 04:46:03;;;;;;;78.20;13.02;;;;;;;;;;5071342;28;20109;-72
2022/11/30 04:48:29;;;;;;;229.25;18.35;;;;;;;;;;5070389;28;20048;-72
2022/11/30 04:51:00;;;;;;;93.53;13.27;;;;;;;;;;5069832;28;20032;-72
2022/11/30 04:53:26;;;;;;;77.97;12.05;;;;;;;;;;5070466;28;20550;-72
2022/11/30 04:55:52;;;;;;;93.30;13.35;;;;;;;;;;5074001;28;20032;-72
2022/11/30 04:58:18;;;;;;;102.20;14.63;;;;;;;;;;5056515;28;20047;-72
2022/11/30 05:00:44;;;;;;;269.70;20.60;;;;;;;;;;5049847;28;20037;-72
2022/11/30 05:03:10;;;;;;;127.82;15.15;;;;;;;;;;5049270;28;20128;-72
2022/11/30 05:05:36;;;;;;;122.72;14.98;;;;;;;;;;5053364;28;20041;-72
2022/11/30 05:08:02;;;;;;;150.10;16.08;;;;;;;;;;5054625;28;20064;-72
2022/11/30 05:10:29;;;;;;;114.18;15.52;;;;;;;;;;5053457;28;20058;-73
2022/11/30 05:12:55;;;;;;;111.72;14.85;;;;;;;;;;5054068;28;20068;-72
2022/11/30 05:15:22;;;;;;;111.28;15.95;;;;;;;;;;5053366;28;20128;-72
2022/11/30 05:17:48;;;;;;;153.52;17.30;;;;;;;;;;5053479;28;20107;-72
2022/11/30 05:20:14;;;;;;;149.35;18.15;;;;;;;;;;5052908;28;20120;-72
2022/11/30 05:22:40;;;;;;;52.15;14.25;;;;;;;;;;5053644;28;20036;-72
2022/11/30 05:25:06;;;;;;;58.78;12.00;;;;;;;;;;5053078;28;20379;-72
2022/11/30 05:27:34;;;;;;;24.35;11.65;;;;;;;;;;5053083;28;20033;-72
2022/11/30 05:30:00;;;;;;;21.08;11.15;;;;;;;;;;5053068;28;20513;-73
2022/11/30 05:32:26;;;;;;;21.80;10.50;;;;;;;;;;5053151;28;20075;-72
2022/11/30 05:34:52;;;;;;;30.40;13.63;;;;;;;;;;5053040;28;20037;-73
2022/11/30 05:37:18;;;;;;;22.50;12.05;;;;;;;;;;5052666;28;20041;-73
2022/11/30 05:39:44;;;;;;;22.55;12.20;;;;;;;;;;5052928;28;20056;-73
2022/11/30 05:42:10;;;;;;;25.77;12.95;;;;;;;;;;5052546;28;20109;-73
2022/11/30 05:44:36;;;;;;;29.63;14.18;;;;;;;;;;5052781;28;20041;-73
2022/11/30 05:47:02;;;;;;;34.25;14.98;;;;;;;;;;5052812;28;20053;-72
2022/11/30 05:49:28;;;;;;;45.20;17.42;;;;;;;;;;5052669;28;20041;-72
2022/11/30 05:51:55;;;;;;;34.03;15.75;;;;;;;;;;5052698;28;20033;-73
2022/11/30 05:54:21;;;;;;;36.17;16.33;;;;;;;;;;5052543;28;20406;-73
2022/11/30 05:56:47;;;;;;;49.13;19.05;;;;;;;;;;5052797;28;20147;-73
2022/11/30 05:59:13;;;;;;;35.97;16.60;;;;;;;;;;5039461;28;20043;-73
2022/11/30 06:01:39;;;;;;;49.83;21.08;;;;;;;;;;5056291;28;20032;-73
2022/11/30 06:04:06;;;;;;;48.72;20.80;;;;;;;;;;5071823;28;20558;-73
2022/11/30 06:06:32;;;;;;;47.88;20.05;;;;;;;;;;5059467;28;20127;-73
2022/11/30 06:08:58;;;;;;;49.45;19.80;;;;;;;;;;5072708;28;20045;-73
2022/11/30 06:11:24;;;;;;;46.03;19.50;;;;;;;;;;5072145;28;20481;-72
2022/11/30 06:13:50;;;;;;;45.70;18.80;;;;;;;;;;5072565;28;20064;-72
2022/11/30 06:16:16;;;;;;;46.80;18.85;;;;;;;;;;5071600;28;20115;-72
2022/11/30 06:18:42;;;;;;;46.33;19.45;;;;;;;;;;5072804;28;20495;-72
2022/11/30 06:21:11;;;;;;;53.63;20.83;;;;;;;;;;5071563;28;20036;-72
2022/11/30 06:23:38;;;;;;;62.60;20.17;;;;;;;;;;5072173;28;20044;-72
2022/11/30 06:26:05;;;;;;;47.50;19.75;;;;;;;;;;5073244;28;20043;-72
2022/11/30 06:28:31;;;;;;;57.55;20.35;;;;;;;;;;5071959;28;20071;-72
2022/11/30 06:30:58;;;;;;;52.17;20.48;;;;;;;;;;5072218;28;20051;-72
2022/11/30 06:33:24;;;;;;;57.20;21.33;;;;;;;;;;5050293;28;20037;-72
2022/11/30 06:35:54;;;;;;;60.60;22.70;;;;;;;;;;5046464;28;20056;-72
2022/11/30 06:38:20;;;;;;;61.47;21.27;;;;;;;;;;5071644;28;20040;-72
2022/11/30 06:40:47;;;;;;;56.50;20.85;;;;;;;;;;5073130;28;20040;-72
2022/11/30 06:43:13;;;;;;;51.20;20.20;;;;;;;;;;5071219;28;20037;-72
2022/11/30 06:45:39;;;;;;;66.97;22.83;;;;;;;;;;5071724;28;20122;-72
2022/11/30 06:48:05;;;;;;;68.40;22.55;;;;;;;;;;5105552;28;20048;-72
2022/11/30 06:50:31;;;;;;;51.17;21.10;;;;;;;;;;5071509;28;20044;-72
2022/11/30 06:52:57;;;;;;;56.25;21.90;;;;;;;;;;5055344;28;20560;-72
2022/11/30 06:55:24;;;;;;;52.08;20.65;;;;;;;;;;5071414;28;20119;-72
2022/11/30 06:57:50;;;;;;;63.95;23.13;;;;;;;;;;5054933;28;20036;-72
2022/11/30 07:00:16;;;;;;;55.22;21.52;;;;;;;;;;5058614;28;20075;-72
2022/11/30 07:02:42;;;;;;;62.22;22.58;;;;;;;;;;5070247;28;20040;-72
2022/11/30 07:05:08;;;;;;;51.05;20.75;;;;;;;;;;5071653;28;20044;-72
2022/11/30 07:07:34;;;;;;;52.22;22.65;;;;;;;;;;5071379;28;20123;-72
2022/11/30 07:10:01;;;;;;;59.22;22.73;;;;;;;;;;5071454;28;20044;-72
2022/11/30 07:12:27;;;;;;;61.65;23.80;;;;;;;;;;5070974;28;20033;-72
2022/11/30 07:14:55;;;;;;;58.97;23.08;;;;;;;;;;5071368;28;20123;-72
2022/11/30 07:17:22;;;;;;;57.53;23.50;;;;;;;;;;5070258;28;20043;-72
2022/11/30 07:19:48;;;;;;;56.10;22.35;;;;;;;;;;5071658;28;20512;-72
2022/11/30 07:22:14;;;;;;;61.65;24.25;;;;;;;;;;5070796;28;20041;-72
2022/11/30 07:27:25;;;;;;;67.22;26.95;;;;;;;;;;5062380;28;20051;-72
2022/11/30 07:29:51;;;;;;;67.20;25.98;;;;;;;;;;5070935;28;20047;-72
2022/11/30 07:32:17;;;;;;;64.55;24.77;;;;;;;;;;5070641;28;20051;-72
2022/11/30 07:34:44;;;;;;;63.53;24.80;;;;;;;;;;5057640;28;20040;-72
2022/11/30 07:37:10;;;;;;;69.65;24.20;;;;;;;;;;5070870;28;20113;-72
2022/11/30 07:39:36;;;;;;;50.92;22.33;;;;;;;;;;5070714;28;20401;-72
2022/11/30 07:42:03;;;;;;;63.42;24.13;;;;;;;;;;5058424;28;20047;-72
2022/11/30 07:44:29;;;;;;;62.72;24.40;;;;;;;;;;5070730;28;20386;-72
2022/11/30 07:46:55;;;;;;;54.50;22.80;;;;;;;;;;5070705;28;20048;-72
2022/11/30 07:49:21;;;;;;;60.90;22.58;;;;;;;;;;5070557;28;20134;-73
2022/11/30 07:51:47;;;;;;;59.53;24.52;;;;;;;;;;5072172;28;20071;-72
2022/11/30 07:54:13;;;;;;;59.75;24.85;;;;;;;;;;5072453;28;20037;-72
2022/11/30 07:56:39;;;;;;;60.30;23.95;;;;;;;;;;5070331;28;20051;-72
2022/11/30 07:59:05;;;;;;;61.08;24.73;;;;;;;;;;5070682;28;20044;-72
2022/11/30 08:01:32;;;;;;;58.22;25.13;;;;;;;;;;5070302;28;20044;-72
2022/11/30 08:03:58;;;;;;;59.13;25.67;;;;;;;;;;5070716;28;20048;-72
2022/11/30 08:06:26;;;;;;;71.28;26.35;;;;;;;;;;5070245;28;20041;-72
2022/11/30 08:08:52;;;;;;;64.88;24.48;;;;;;;;;;5070736;28;20037;-72
2022/11/30 08:11:23;;;;;;;66.72;26.60;;;;;;;;;;5070296;28;20119;-72
2022/11/30 08:13:49;;;;;;;67.43;26.38;;;;;;;;;;5070667;28;20045;-72
2022/11/30 08:16:16;;;;;;;62.90;24.83;;;;;;;;;;5070442;28;20043;-72
2022/11/30 08:18:42;;;;;;;63.17;25.75;;;;;;;;;;5070184;28;20028;-72
2022/11/30 08:21:09;;;;;;;69.07;26.33;;;;;;;;;;5070512;28;20052;-72
2022/11/30 08:23:37;;;;;;;67.70;27.48;;;;;;;;;;5070519;28;20051;-72
2022/11/30 08:26:05;;;;;;;70.03;26.88;;;;;;;;;;5070430;28;20098;-72
2022/11/30 08:28:31;;;;;;;72.88;27.50;;;;;;;;;;5070387;28;20045;-72
2022/11/30 08:31:01;;;;;;;70.47;27.20;;;;;;;;;;5074771;28;20539;-72
2022/11/30 08:33:27;;;;;;;71.00;27.55;;;;;;;;;;5069134;28;20041;-73
2022/11/30 08:35:54;;;;;;;70.03;26.15;;;;;;;;;;5049614;28;20052;-72
2022/11/30 08:38:20;;;;;;;69.93;26.05;;;;;;;;;;5075586;28;20037;-72
2022/11/30 08:40:46;;;;;;;70.03;26.02;;;;;;;;;;5073842;28;20044;-72
2022/11/30 08:43:12;;;;;;;82.53;28.90;;;;;;;;;;5074375;28;20170;-72
2022/11/30 08:45:38;;;;;;;75.88;26.30;;;;;;;;;;5074096;28;20358;-72
2022/11/30 08:48:04;;;;;;;77.78;27.67;;;;;;;;;;5074154;28;20519;-72
2022/11/30 08:50:30;;;;;;;72.93;27.65;;;;;;;;;;5059946;28;20120;-72
2022/11/30 08:52:57;;;;;;;75.95;27.23;;;;;;;;;;5074238;28;20374;-72
2022/11/30 08:55:23;;;;;;;77.82;26.98;;;;;;;;;;5074200;28;20351;-72
2022/11/30 08:57:49;;;;;;;91.03;30.00;;;;;;;;;;5073879;28;20039;-72
2022/11/30 09:00:15;;;;;;;117.30;35.47;;;;;;;;;;5073661;28;20036;-72
2022/11/30 09:02:41;;;;;;;158.38;42.13;;;;;;;;;;5073456;28;20045;-72
2022/11/30 09:05:08;;;;;;;143.10;43.60;;;;;;;;;;5073812;28;20044;-73
2022/11/30 09:07:34;;;;;;;96.15;37.13;;;;;;;;;;5106943;28;20037;-73
2022/11/30 09:10:00;;;;;;;94.65;36.00;;;;;;;;;;5073717;28;20032;-73
2022/11/30 09:12:26;;;;;;;65.25;30.02;;;;;;;;;;5073294;28;20074;-73
2022/11/30 09:14:52;;;;;;;51.75;26.40;;;;;;;;;;5073731;28;20048;-73
2022/11/30 09:17:18;;;;;;;47.10;25.15;;;;;;;;;;5073505;28;20041;-73
2022/11/30 09:19:44;;;;;;;47.13;24.38;;;;;;;;;;5073356;28;20167;-73
2022/11/30 09:22:10;;;;;;;41.38;22.80;;;;;;;;;;5074948;28;20036;-73
2022/11/30 09:24:37;;;;;;;33.08;18.40;;;;;;;;;;5089917;28;20087;-73
2022/11/30 09:27:03;;;;;;;34.25;18.60;;;;;;;;;;5056784;28;20043;-73
2022/11/30 09:29:29;;;;;;;34.08;18.40;;;;;;;;;;5056156;28;20076;-73
2022/11/30 09:31:55;;;;;;;32.70;17.08;;;;;;;;;;5073103;28;20043;-73
2022/11/30 09:34:21;;;;;;;32.28;17.38;;;;;;;;;;5061000;28;20072;-73
2022/11/30 09:36:47;;;;;;;37.70;18.38;;;;;;;;;;5072100;28;20519;-72
2022/11/30 09:39:13;;;;;;;38.75;19.67;;;;;;;;;;5073364;28;20501;-72
2022/11/30 09:41:45;;;;;;;40.35;19.75;;;;;;;;;;5072350;28;20090;-73
2022/11/30 09:44:11;;;;;;;38.17;19.50;;;;;;;;;;5073204;28;20498;-73
2022/11/30 09:46:49;;;;;;;42.83;19.98;;;;;;;;;;5072104;28;20098;-73
2022/11/30 09:49:15;;;;;;;36.90;19.10;;;;;;;;;;5072960;28;20111;-72
2022/11/30 09:51:41;;;;;;;40.10;20.60;;;;;;;;;;5072432;28;20048;-73
2022/11/30 09:54:11;;;;;;;40.53;20.35;;;;;;;;;;5073016;28;20490;-72
2022/11/30 09:56:39;;;;;;;47.63;21.00;;;;;;;;;;5072523;28;20127;-72
2022/11/30 09:59:14;;;;;;;40.90;19.15;;;;;;;;;;5073907;28;20040;-72
2022/11/30 10:01:40;;;;;;;43.20;20.27;;;;;;;;;;5073470;28;20037;-72
2022/11/30 10:04:10;;;;;;;42.40;20.30;;;;;;;;;;5023917;28;20109;-72
2022/11/30 10:06:50;;;;;;;43.55;20.05;;;;;;;;;;5072601;28;20051;-72
2022/11/30 10:09:23;;;;;;;48.08;22.17;;;;;;;;;;5072377;28;20036;-72
2022/11/30 10:12:01;;;;;;;45.53;20.95;;;;;;;;;;5072112;28;20075;-72
2022/11/30 10:14:40;;;;;;;41.88;20.90;;;;;;;;;;5072390;28;20033;-72
2022/11/30 10:17:26;;;;;;;42.92;20.92;;;;;;;;;;5072484;28;20500;-72
2022/11/30 10:19:55;;;;;;;41.72;20.30;;;;;;;;;;5041698;28;20059;-72
2022/11/30 10:22:21;;;;;;;47.80;21.98;;;;;;;;;;5072298;28;20044;-72
2022/11/30 10:24:59;;;;;;;45.60;21.52;;;;;;;;;;5071872;28;20044;-72
2022/11/30 10:27:40;;;;;;;42.08;21.20;;;;;;;;;;5072051;28;20048;-72
2022/11/30 10:30:15;;;;;;;46.50;23.10;;;;;;;;;;5072039;28;20040;-73
2022/11/30 10:32:43;;;;;;;44.53;21.63;;;;;;;;;;5071701;28;20504;-73
2022/11/30 10:35:38;;;;;;;41.35;20.45;;;;;;;;;;5058514;28;20041;-72
2022/11/30 10:38:25;;;;;;;42.88;21.30;;;;;;;;;;5049438;28;20118;-72
2022/11/30 10:40:57;;;;;;;42.25;20.90;;;;;;;;;;5071468;28;20048;-72
2022/11/30 10:43:31;;;;;;;43.33;20.85;;;;;;;;;;5071801;28;20032;-72
2022/11/30 10:45:57;;;;;;;40.50;20.55;;;;;;;;;;5071457;28;20133;-72
2022/11/30 10:48:23;;;;;;;39.05;20.27;;;;;;;;;;5054559;28;20052;-72
2022/11/30 10:50:50;;;;;;;41.13;20.67;;;;;;;;;;5071545;28;20489;-72
2022/11/30 10:53:16;;;;;;;41.05;20.67;;;;;;;;;;5072328;28;20166;-72
2022/11/30 10:55:44;;;;;;;42.08;20.42;;;;;;;;;;5071259;28;20043;-73
2022/11/30 10:58:20;;;;;;;41.17;21.02;;;;;;;;;;5072872;28;20562;-72
2022/11/30 11:01:07;;;;;;;45.35;23.23;;;;;;;;;;5071355;28;20044;-73
2022/11/30 11:03:33;;;;;;;46.00;21.85;;;;;;;;;;5071370;28;20469;-72
2022/11/30 11:06:04;;;;;;;43.03;21.85;;;;;;;;;;5072278;28;20033;-72
2022/11/30 11:08:30;;;;;;;43.80;20.92;;;;;;;;;;5072625;28;20561;-72
2022/11/30 11:10:56;;;;;;;40.08;21.98;;;;;;;;;;5071283;28;20375;-72
2022/11/30 11:13:40;;;;;;;45.83;21.77;;;;;;;;;;5071610;28;20403;-72
2022/11/30 11:16:08;;;;;;;40.53;20.50;;;;;;;;;;5071411;28;20044;-72
2022/11/30 11:18:35;;;;;;;42.42;21.05;;;;;;;;;;5071168;28;20093;-72
2022/11/30 11:21:03;;;;;;;39.67;20.27;;;;;;;;;;5070715;28;20087;-72
2022/11/30 11:23:29;;;;;;;39.08;19.88;;;;;;;;;;5072545;28;20044;-72
2022/11/30 11:25:56;;;;;;;39.78;19.95;;;;;;;;;;5072472;28;20066;-72
2022/11/30 11:28:24;;;;;;;41.22;22.10;;;;;;;;;;5071169;28;20044;-72
2022/11/30 11:30:53;;;;;;;40.53;20.83;;;;;;;;;;5054338;28;20048;-72
2022/11/30 11:33:21;;;;;;;42.28;20.77;;;;;;;;;;5067489;28;20406;-72
2022/11/30 11:35:48;;;;;;;38.95;19.55;;;;;;;;;;5061409;28;20047;-72
2022/11/30 11:38:23;;;;;;;42.25;21.88;;;;;;;;;;5104815;28;20045;-72
2022/11/30 11:41:02;;;;;;;39.50;20.80;;;;;;;;;;5070664;28;20146;-72
2022/11/30 11:43:30;;;;;;;44.10;21.85;;;;;;;;;;5071110;28;20131;-72
2022/11/30 11:45:59;;;;;;;41.17;21.70;;;;;;;;;;5070560;28;20048;-72
2022/11/30 11:48:37;;;;;;;41.63;21.10;;;;;;;;;;5070503;28;20079;-72
2022/11/30 11:51:07;;;;;;;43.15;21.08;;;;;;;;;;5070670;28;20039;-72
2022/11/30 11:53:40;;;;;;;43.65;21.83;;;;;;;;;;5071124;28;20389;-72
2022/11/30 11:56:11;;;;;;;42.45;22.80;;;;;;;;;;5070556;28;20234;-72
2022/11/30 11:58:41;;;;;;;41.95;21.85;;;;;;;;;;5070775;28;20041;-72
2022/11/30 12:01:10;;;;;;;41.70;20.92;;;;;;;;;;5070426;28;20040;-72
2022/11/30 12:03:56;;;;;;;42.20;20.05;;;;;;;;;;5074105;28;20044;-72
2022/11/30 12:06:23;;;;;;;40.92;20.52;;;;;;;;;;5074808;28;20072;-72
2022/11/30 12:08:56;;;;;;;40.95;20.35;;;;;;;;;;5074917;28;20044;-72
2022/11/30 12:11:29;;;;;;;42.40;20.38;;;;;;;;;;5075059;28;20600;-72
2022/11/30 12:13:55;;;;;;;41.67;21.20;;;;;;;;;;5074391;28;20040;-72
2022/11/30 12:16:40;;;;;;;42.15;22.40;;;;;;;;;;5058055;28;20041;-72
2022/11/30 12:19:18;;;;;;;40.15;20.92;;;;;;;;;;5075446;28;20044;-72
2022/11/30 12:22:03;;;;;;;43.03;20.83;;;;;;;;;;5082362;28;20158;-72
2022/11/30 12:24:36;;;;;;;40.45;20.85;;;;;;;;;;5076137;28;20481;-72
2022/11/30 12:27:09;;;;;;;38.53;20.33;;;;;;;;;;5057686;28;20123;-72
2022/11/30 12:29:44;;;;;;;42.33;20.98;;;;;;;;;;5074567;28;20409;-72
2022/11/30 12:32:13;;;;;;;31.70;15.82;;;;;;;;;;5074348;28;20082;-72
2022/11/30 12:34:48;;;;;;;39.10;20.50;;;;;;;;;;5062367;28;20041;-72
2022/11/30 12:37:23;;;;;;;37.92;19.20;;;;;;;;;;5074131;28;20123;-72
2022/11/30 12:39:56;;;;;;;39.25;19.95;;;;;;;;;;5074259;28;20044;-72
2022/11/30 12:42:28;;;;;;;37.42;19.23;;;;;;;;;;5075627;28;20131;-72
2022/11/30 12:45:15;;;;;;;39.60;19.85;;;;;;;;;;5074070;28;20036;-72
2022/11/30 12:48:00;;;;;;;39.45;19.98;;;;;;;;;;5073964;28;20110;-72
2022/11/30 12:50:30;;;;;;;40.95;19.65;;;;;;;;;;5073769;28;20047;-72
2022/11/30 12:52:56;;;;;;;39.50;19.92;;;;;;;;;;5074008;28;20063;-72
2022/11/30 12:55:31;;;;;;;34.22;18.98;;;;;;;;;;5073765;28;20068;-72
2022/11/30 12:58:12;;;;;;;39.85;20.02;;;;;;;;;;5074088;28;20048;-72
2022/11/30 13:00:58;;;;;;;40.28;20.02;;;;;;;;;;5069714;28;20051;-72
2022/11/30 13:03:27;;;;;;;35.40;18.88;;;;;;;;;;5073880;28;20044;-72
2022/11/30 13:05:57;;;;;;;38.88;19.95;;;;;;;;;;5073486;28;20049;-72
2022/11/30 13:08:42;;;;;;;38.83;20.10;;;;;;;;;;5073683;28;20052;-72
2022/11/30 13:11:12;;;;;;;40.55;20.50;;;;;;;;;;5073420;28;20409;-72
2022/11/30 13:13:48;;;;;;;41.35;20.70;;;;;;;;;;5073693;28;20040;-72
2022/11/30 13:16:14;;;;;;;;;;;;;;;;;;5072767;28;20037;-73
2022/11/30 13:18:41;;;;;;;40.75;21.08;;;;;;;;;;5073873;28;19920;-72
2022/11/30 13:21:16;;;;;;;37.83;19.70;;;;;;;;;;5072801;28;20047;-72
2022/11/30 13:23:52;;;;;;;40.13;20.60;;;;;;;;;;5073839;28;20512;-72
2022/11/30 13:26:31;;;;;;;44.08;20.58;;;;;;;;;;5073066;28;20052;-72
2022/11/30 13:29:17;;;;;;;43.30;21.58;;;;;;;;;;5074608;28;20120;-72
2022/11/30 13:31:47;;;;;;;49.75;22.52;;;;;;;;;;5073186;28;20043;-73
2022/11/30 13:34:25;;;;;;;42.65;21.67;;;;;;;;;;5061771;28;20037;-72
2022/11/30 13:36:51;;;;;;;43.55;22.30;;;;;;;;;;5055909;28;20052;-72
2022/11/30 13:39:22;;;;;;;43.67;21.60;;;;;;;;;;5072824;28;20041;-72
2022/11/30 13:42:08;;;;;;;42.65;21.92;;;;;;;;;;5074533;28;20086;-72
2022/11/30 13:44:34;;;;;;;36.45;17.73;;;;;;;;;;5072682;28;20055;-72
2022/11/30 13:47:02;;;;;;;48.22;23.02;;;;;;;;;;5072241;28;20117;-73
2022/11/30 13:49:29;;;;;;;50.53;23.48;;;;;;;;;;5073127;28;20049;-72
2022/11/30 13:51:56;;;;;;;49.80;24.15;;;;;;;;;;5072883;28;20115;-72
2022/11/30 13:54:41;;;;;;;48.38;23.70;;;;;;;;;;5072976;28;20557;-72
2022/11/30 13:57:26;;;;;;;47.45;24.00;;;;;;;;;;5072537;28;20063;-72
2022/11/30 13:59:52;;;;;;;49.95;24.25;;;;;;;;;;5072651;28;20047;-72
2022/11/30 14:02:31;;;;;;;50.83;24.98;;;;;;;;;;5072424;28;20488;-72
2022/11/30 14:05:19;;;;;;;52.05;24.83;;;;;;;;;;5072790;28;20098;-72
2022/11/30 14:07:54;;;;;;;46.67;23.85;;;;;;;;;;5072211;28;20507;-72
2022/11/30 14:10:28;;;;;;;50.47;25.20;;;;;;;;;;5072169;28;20048;-72
2022/11/30 14:13:21;;;;;;;47.63;23.65;;;;;;;;;;5072386;28;20045;-72
2022/11/30 14:15:47;;;;;;;50.13;24.35;;;;;;;;;;5066350;28;20056;-72
2022/11/30 14:18:21;;;;;;;53.67;24.52;;;;;;;;;;5071966;28;20066;-72
2022/11/30 14:20:57;;;;;;;52.35;25.55;;;;;;;;;;5072407;28;20075;-72
2022/11/30 14:23:38;;;;;;;51.65;24.67;;;;;;;;;;5078890;28;20464;-72
2022/11/30 14:26:07;;;;;;;56.33;25.27;;;;;;;;;;5071741;28;20048;-72
2022/11/30 14:28:43;;;;;;;53.83;25.77;;;;;;;;;;5071738;28;20036;-72